Decoded Metar for LRBS (BUCHAREST in ROMANIA) (IATA:BBU) | Meteo·Mobile Aviation Weather
aviador You're here:

LRBS Decoded Metar

BUCHAREST in ROMANIA
Report Time2019-03-23 20:00:00
UTC Time2019-03-23 20:25:00
Flight Rules vfr VFR
Wind090° at 07 kt
W.Decomp.*RWY 07: 6.7 kt HW 1.9 kt RCW
W.Rank090° ranks 14
Current wind is above 090° avg. (5.7)
Visibility9999 m
Phenomena:N/A
Clouds:N/A
Expected CloudBase > 8,800 ft AGL from Temp-Dew spread
CeilingNone
Temp09°C (ISA -5)
Dew Point-13°C (20% RH)
AAT3.2°C
QNH1025 hPa
Density Alt-719 ft
Elevation299 ft
Report Wrong Elevation
Raw Report
LRBS 232000Z 09007KT CAVOK 09/M13 Q1025 NOSIG=

Extra information for LRBS:More info

Metar Taf Metar & Taf Last 4 Metars F.Rules Stats Wind Profile Meteogram Temp Stats Airport Information Weather charts Add Link Nearby VenuesMetar ALERT Operation Metar Decoded Social comments